Stations météo

réclame
Mon MeteoGroup
Villardeciervos, Espagne (8125): Température de l'air & dewpoint: 16.01.2018 21:00:00 - 22.01.2018 21:00:00 (CET)Villardeciervos, Espagne (8125): Vitesse du vent & gusts: 16.01.2018 21:00:00 - 22.01.2018 21:00:00 (CET)Villardeciervos, Espagne (8125): Direction du vent: 16.01.2018 21:00:00 - 22.01.2018 21:00:00 (CET)Villardeciervos, Espagne (8125): visibility: 16.01.2018 21:00:00 - 22.01.2018 21:00:00 (CET)Villardeciervos, Espagne (8125): Ensoleillement: 16.01.2018 21:00:00 - 22.01.2018 21:00:00 (CET)Villardeciervos, Espagne (8125): Quantités de précipitations: 16.01.2018 21:00:00 - 22.01.2018 21:00:00 (CET)
Date & Time tt [°C] td [°C] ff [km/h] ff [knt] fx [km/h] fx [knt] dd vv [km] sd [min] rr [mm]
22.01.2018 21:00:00 - - - - - - - - - -
22.01.2018 20:00:00 5,3 3,6 3 2 9 5 NE 0,5 0 0,0
22.01.2018 19:00:00 7,4 3,6 1 1 14 7 NE 20 0 -
22.01.2018 18:00:00 11,7 5,1 10 6 19 10 ENE 20 51 0,0
22.01.2018 17:00:00 14,6 5,1 4 2 16 9 SW 20 60 0,0
22.01.2018 16:00:00 14,4 5,8 8 4 13 7 WSW 20 47 0,0
22.01.2018 15:00:00 15,2 6,2 4 2 14 7 N 20 60 0,0
22.01.2018 14:00:00 13,7 5,1 3 2 9 5 WNW 20 60 0,0
22.01.2018 13:00:00 11,6 6,2 3 2 9 5 NNW 20 60 -
22.01.2018 12:00:00 7,2 5,6 2 1 8 4 ESE 20 60 0,0
22.01.2018 11:00:00 2,9 2,1 4 2 8 5 SE 0,5 59 0,0
22.01.2018 10:00:00 -0,1 -1,0 5 3 8 4 SE 0,4 28 0,0
22.01.2018 09:00:00 -1,0 -1,7 4 2 7 4 E 0,3 0 0,0
22.01.2018 08:00:00 -1,2 -2,0 3 2 10 5 S - 0 0,0
22.01.2018 07:00:00 -1,0 -2,0 0 0 5 3 N 0,1 0 -
22.01.2018 06:00:00 -2,1 -3,0 4 2 7 4 SSE 0,2 0 0,0
22.01.2018 05:00:00 -2,1 -3,0 2 1 5 3 N 0,5 0 0,0
22.01.2018 04:00:00 -1,5 -2,5 3 1 5 3 SE 0,6 0 0,0
22.01.2018 03:00:00 -1,3 -2,2 2 1 5 3 NW 0,5 0 0,0
22.01.2018 02:00:00 -0,7 -2,0 1 1 4 2 S 0,4 0 0,0
22.01.2018 01:00:00 0,3 -1,0 0 0 4 2 N - 0 -
22.01.2018 00:00:00 1,1 -0,3 3 2 5 3 SSE 6 0 0,0
21.01.2018 23:00:00 2,0 0,0 1 1 6 3 SW 20 0 0,0
21.01.2018 22:00:00 3,9 2,1 4 2 9 5 S 20 0 0,0
21.01.2018 21:00:00 6,0 3,4 2 1 9 5 WSW 20 0 0,0
21.01.2018 20:00:00 8,1 4,8 3 2 16 9 SSW 20 0 0,0
21.01.2018 19:00:00 9,5 5,5 8 4 27 15 S 20 0 -
21.01.2018 18:00:00 11,6 5,5 14 8 27 15 SSW 20 49 0,0
21.01.2018 17:00:00 14,0 5,6 16 8 26 14 SW 20 60 0,0
21.01.2018 16:00:00 14,8 6,4 11 6 22 12 SW 20 60 0,0
21.01.2018 15:00:00 13,9 6,1 9 5 23 12 SSW 20 60 0,0
21.01.2018 14:00:00 12,4 5,3 12 6 24 13 SSW 20 60 0,0
21.01.2018 13:00:00 12,0 5,5 9 5 22 12 SSW 20 60 -
21.01.2018 12:00:00 11,7 5,3 3 2 11 6 ESE 20 60 0,0
21.01.2018 11:00:00 7,3 3,6 1 1 5 3 NNW 20 60 0,0
21.01.2018 10:00:00 2,9 1,3 2 1 6 4 E 20 59 0,0
21.01.2018 09:00:00 0,0 -1,2 1 1 6 3 NW 0,7 1 0,0
21.01.2018 08:00:00 1,3 0,0 4 2 8 5 N 20 0 0,0
21.01.2018 07:00:00 2,5 0,6 3 2 11 6 SE 20 0 -
21.01.2018 06:00:00 4,4 2,7 8 4 13 7 SE 20 0 0,0
21.01.2018 05:00:00 5,5 2,9 10 5 19 11 ESE 20 0 0,0
21.01.2018 04:00:00 7,7 3,9 13 7 22 12 WSW 20 0 0,0
21.01.2018 03:00:00 7,4 3,9 9 5 30 16 WSW 20 0 0,0
21.01.2018 02:00:00 8,1 3,9 16 8 35 19 WSW 20 0 0,0
21.01.2018 01:00:00 - - - - - - - - - -
21.01.2018 00:00:00 7,7 3,9 12 6 23 12 SW 20 0 0,0
20.01.2018 23:00:00 6,5 3,9 12 7 20 11 SW 20 0 0,0
20.01.2018 22:00:00 6,6 3,0 6 4 16 9 SE 20 0 0,0
20.01.2018 21:00:00 7,7 3,4 6 3 27 15 SE 20 0 0,0
20.01.2018 20:00:00 9,3 3,8 17 9 30 16 WSW 20 0 0,0
20.01.2018 19:00:00 9,9 4,3 15 8 22 12 SSW 20 0 -
20.01.2018 18:00:00 11,0 4,6 13 7 25 13 SW 20 33 0,0
20.01.2018 17:00:00 10,9 4,3 10 5 26 14 SSW 20 0 0,0
20.01.2018 16:00:00 10,9 4,1 15 8 26 14 SW 20 1 0,0
20.01.2018 15:00:00 10,9 3,4 12 7 30 16 S 3,0 0 0,0
20.01.2018 14:00:00 10,6 2,5 14 7 35 19 SSW 20 30 0,0
20.01.2018 13:00:00 11,5 0,9 14 7 37 20 SW 20 48 -
20.01.2018 12:00:00 10,5 2,3 19 10 43 23 WSW 20 17 0,0
20.01.2018 11:00:00 8,6 0,2 19 10 34 18 WSW 20 13 0,0
20.01.2018 10:00:00 7,6 0,4 14 8 33 18 SW 20 0 0,0
20.01.2018 09:00:00 7,1 -3,0 11 6 36 20 SW 20 0 0,0
20.01.2018 08:00:00 7,1 -6,7 12 7 29 16 SW 20 0 0,0
20.01.2018 07:00:00 6,8 -8,2 11 6 22 12 SW 20 0 -
20.01.2018 06:00:00 7,1 -9,4 13 7 27 14 WSW 20 0 0,0
20.01.2018 05:00:00 2,0 -4,5 3 2 15 8 ESE 20 0 0,0
20.01.2018 04:00:00 1,8 -5,4 8 4 15 8 WSW 20 0 0,0
20.01.2018 03:00:00 -1,3 -3,9 2 1 10 5 NE 20 0 0,0
20.01.2018 02:00:00 -1,0 -4,2 2 1 10 5 W 20 0 0,0
20.01.2018 01:00:00 - - - - - - - - - -
20.01.2018 00:00:00 0,4 -3,6 3 1 11 6 SSE 20 0 0,0
19.01.2018 23:00:00 0,5 -3,0 6 3 11 6 S 20 0 0,0
19.01.2018 22:00:00 0,7 -2,7 4 2 6 3 S 20 0 0,0
19.01.2018 21:00:00 2,1 -1,4 4 2 8 4 SSE 20 0 0,0
19.01.2018 20:00:00 4,8 -0,7 5 3 8 5 S 20 0 0,0
19.01.2018 19:00:00 7,8 1,9 3 1 9 5 SW 20 0 -
19.01.2018 18:00:00 12,8 2,9 4 2 12 6 S 20 45 0,0
19.01.2018 17:00:00 14,9 2,5 3 2 16 9 SE 20 60 0,0
19.01.2018 16:00:00 14,1 1,7 10 5 21 12 SSW 20 60 0,0
19.01.2018 15:00:00 14,1 0,6 8 4 23 12 SSW 20 60 0,0
19.01.2018 14:00:00 13,7 1,3 9 5 22 12 SSW 20 60 0,0
19.01.2018 13:00:00 13,3 0,6 7 4 14 8 SE 20 60 -
19.01.2018 12:00:00 11,2 1,5 4 2 11 6 SSE 20 60 0,0
19.01.2018 11:00:00 6,4 2,7 5 3 10 6 S 20 60 0,0
19.01.2018 10:00:00 0,2 -1,4 3 2 8 5 ENE 20 60 0,0
19.01.2018 09:00:00 -2,7 -3,9 1 1 9 5 N 20 0 0,0
19.01.2018 08:00:00 -2,8 -3,9 7 4 10 5 SSE 20 0 0,0
19.01.2018 07:00:00 -2,8 -4,2 2 1 8 4 WNW 20 0 -
19.01.2018 06:00:00 -2,0 -3,3 3 2 9 5 WNW 20 0 0,0
19.01.2018 05:00:00 -2,0 -3,0 8 5 11 6 S 20 0 0,0
19.01.2018 04:00:00 -1,9 -3,3 3 2 8 4 S 20 0 0,0
19.01.2018 03:00:00 -2,1 -3,6 6 3 7 4 S 20 0 0,0
19.01.2018 02:00:00 -1,5 -3,0 3 1 6 4 NE 20 0 0,0
19.01.2018 01:00:00 -0,9 -2,7 2 1 6 4 SSE 20 0 -
19.01.2018 00:00:00 0,0 -2,0 2 1 8 4 NE 20 0 0,0
18.01.2018 23:00:00 1,5 -0,3 3 2 8 5 SSW 20 0 0,0
18.01.2018 22:00:00 2,9 -0,3 3 2 11 6 NW 20 0 0,0
18.01.2018 21:00:00 4,6 0,6 7 4 11 6 SSE 20 0 0,0
18.01.2018 20:00:00 6,4 1,9 5 3 15 8 W 20 0 0,0
18.01.2018 19:00:00 9,1 1,9 6 3 16 9 S 20 0 -
18.01.2018 18:00:00 11,9 0,6 5 3 20 11 S 20 45 0,0
18.01.2018 17:00:00 14,7 0,4 11 6 24 13 SW 20 60 0,0
18.01.2018 16:00:00 15,8 -1,2 10 5 18 10 SSW 20 60 0,0
18.01.2018 15:00:00 15,9 -1,7 8 4 16 8 SSW 20 60 0,0
18.01.2018 14:00:00 15,1 -1,4 5 3 16 9 SW 20 60 0,0
18.01.2018 13:00:00 12,7 3,0 3 2 10 5 WNW 20 60 -
18.01.2018 12:00:00 8,5 2,9 3 2 9 5 NW 20 60 0,0
18.01.2018 11:00:00 4,3 1,1 4 2 8 4 SSE 20 60 0,0
18.01.2018 10:00:00 0,0 -1,4 1 1 8 5 E 20 59 0,0
18.01.2018 09:00:00 -3,7 -5,1 4 2 11 6 SSE 20 0 0,0
18.01.2018 08:00:00 -3,5 -4,8 2 1 9 5 E 20 0 0,0
18.01.2018 07:00:00 -3,1 -4,2 5 3 8 4 SSE 20 0 -
18.01.2018 06:00:00 -2,8 -4,2 4 2 8 4 W 20 0 0,0
18.01.2018 05:00:00 -2,0 -3,3 3 1 10 6 NNE 20 0 0,0
18.01.2018 04:00:00 -2,0 -3,0 6 4 9 5 SSE 20 0 0,0
18.01.2018 03:00:00 -1,9 -3,3 5 3 7 4 SSE 20 0 0,0
18.01.2018 02:00:00 -1,2 -3,3 2 1 10 5 NE 20 0 0,0
18.01.2018 01:00:00 -1,2 -2,7 5 3 6 4 SSE 20 0 -
18.01.2018 00:00:00 -0,7 -2,5 3 2 5 3 SSE 20 0 0,0
17.01.2018 23:00:00 0,3 -2,5 2 1 5 3 ESE 20 0 0,0
17.01.2018 22:00:00 2,6 -1,0 2 1 8 5 WSW 20 0 0,0
17.01.2018 21:00:00 5,4 0,2 6 3 12 6 SSW 20 0 0,0
17.01.2018 20:00:00 5,2 0,0 3 2 10 5 S 20 0 0,0
17.01.2018 19:00:00 7,3 1,1 5 3 14 8 S 20 0 -
17.01.2018 18:00:00 10,9 1,5 8 4 12 7 SSW 20 44 0,0
17.01.2018 17:00:00 13,7 1,1 6 3 11 6 S 20 60 0,0
17.01.2018 16:00:00 14,5 1,1 3 1 16 9 NNW 20 60 0,0
17.01.2018 15:00:00 14,3 1,9 4 2 15 8 SSE 20 60 0,0
17.01.2018 14:00:00 13,8 2,7 3 2 10 5 W 20 60 0,0
17.01.2018 13:00:00 12,2 1,5 2 1 10 5 SSW 20 60 -
17.01.2018 12:00:00 10,1 0,6 6 3 12 6 ENE 20 60 0,0
17.01.2018 11:00:00 7,6 0,9 3 2 16 8 NNW 20 60 0,0
17.01.2018 10:00:00 4,5 0,0 3 1 7 4 NNW 20 59 0,0
17.01.2018 09:00:00 2,7 -1,4 8 4 22 12 SSW 20 0 0,0
17.01.2018 08:00:00 3,8 -1,4 4 2 23 12 S 20 0 0,0
17.01.2018 07:00:00 5,7 -0,7 5 3 33 18 WSW 20 0 -
17.01.2018 06:00:00 6,9 0,0 14 8 31 17 W 20 0 0,0
17.01.2018 05:00:00 7,1 0,9 12 7 30 16 W 20 0 0,0
17.01.2018 04:00:00 7,9 1,3 17 9 33 18 W 20 0 0,0
17.01.2018 03:00:00 8,3 2,9 18 10 44 24 W 20 0 0,0
17.01.2018 02:00:00 9,0 4,3 21 12 41 22 W 20 0 0,0
17.01.2018 01:00:00 9,3 4,3 24 13 42 23 W 20 0 -
17.01.2018 00:00:00 9,5 4,3 23 12 44 24 W 20 0 0,0
16.01.2018 23:00:00 8,5 4,8 18 10 45 24 WSW 20 0 0,0
16.01.2018 22:00:00 7,8 5,6 19 10 34 18 SSW 20 0 0,0
16.01.2018 21:00:00 8,1 5,8 18 10 36 20 SW 20 0 0,0

tt = Température de l'air
td = dewpoint
ff = Vitesse du vent
fx = gusts
dd = Direction du vent
vv = visibility
sd = Ensoleillement
rr = Quantités de précipitations

stations d'obs. à proximité